• Join FlightAware (Why Join?)
  • Login
  • US Flag 
08:04AM EDT


 

Airport Tracker/Info


-or-


 

Live Flight TrackerFlight Track Log ✈ N674AS ✈ 01-Jul-2013 ✈ KDPA - KEKM

Flight Track Log - Related Links

Times and Time Zones

All times are in EDT time to prevent confusion due to time zone crossing. See the N674AS flight status page for this flight to view local times or setup timezone preferences in your user account.

Time Position Orientation Groundspeed Altitude Reporting Facility
EDT Latitude Longitude Course Direction KTS MPH feet Rate Location/Type
08:48AM 41.9000 -88.3333 236° Southwest 274 315 3,000  Level Chicago TRACON
08:49AM 41.8333 -88.3667 200° South 272 313 3,700 2,400 Climbing Chicago TRACON
08:50AM 41.7500 -88.3667 180° South 306 352 7,800 4,200 Climbing Chicago TRACON
08:51AM 41.7667 -88.3000 71° East 253 291 12,100 2,580 Climbing Chicago TRACON
08:52AM 41.8333 -88.2667 20° North 294 338 13,000 420 Climbing Chicago TRACON
08:53AM 41.8333 -88.1500 90° East 304 350 13,000 300 Level Chicago TRACON
08:54AM 41.8333 -88.0333 90° East 294 338 13,700 840 Climbing Chicago TRACON
08:55AM 41.8378 -87.8911 88° East 314 361 15,000 540 Climbing Chicago Center
08:56AM 41.8394 -87.7700 89° East 324 373 15,000  Level Chicago Center
08:57AM 41.8311 -87.6483 95° East 326 375 15,000  Level Chicago Center
08:58AM 41.8228 -87.5011 94° East 331 381 15,000  Level Chicago Center
08:59AM 41.8150 -87.3792 95° East 330 380 15,000  Level Chicago Center
09:00AM 41.8072 -87.2572 95° East 328 377 15,000  Level Chicago Center
09:01AM 41.7989 -87.1372 95° East 326 375 15,000  Level Chicago Center
09:02AM 41.7906 -87.0169 95° East 324 373 15,000  Level Chicago Center
09:03AM 41.7828 -86.8992 95° East 320 368 15,000 -120 Level Chicago Center
09:04AM 41.7739 -86.7583 95° East 318 366 14,800 -540 Descending Chicago Center
09:05AM 41.7667 -86.6544 95° East 321 369 13,900 -900 Descending Chicago Center
09:06AM 41.7589 -86.5378 95° East 316 364 13,000 -1,200 Descending Chicago Center
09:07AM 41.7486 -86.4025 96° East 304 350 11,500 -1,500 Descending Chicago Center
09:08AM 41.7397 -86.2892 96° East 305 351 9,900 -2,040 Descending Chicago Center
09:09AM 41.7331 -86.1944 95° East 259 298 7,300 -3,000 Descending Chicago Center
09:10AM 41.7264 -86.1117 96° East 226 260 3,800 -2,340 Descending Chicago Center
09:12AM 41.7042 -86.0519 116° Southeast 206 237 2,500 -840 Descending Chicago Center
09:13AM 41.6833 -86.0894 233° Southwest 178 205 2,200 -420 Descending Chicago Center
09:14AM 41.7183 -86.0692 23° Northeast 146 168 1,700 -540 Descending Chicago Center
09:15AM 41.7206 -86.0344 85° East 131 151 1,100 -600 Descending Chicago Center
09:17AM 41.7167 -86.0000 62° Northeast  Level FlightAware Approximate